Time;durP1;ratioP1;P1;durP2;ratioP2;P2;SDS_P1;SDS_P2;PMS_P1;PMS_P2;Temp;Humidity;BMP_temperature;BMP_pressure;BME280_temperature;BME280_humidity;BME280_pressure;Samples;Min_cycle;Max_cycle;Signal;HPM_P1;HPM_P2
2023/03/16 00:00:39;;;;;;;23.83;13.77;;;10.80;92.60;;;;;;6063272;23;20186;-73
2023/03/16 00:03:07;;;;;;;28.80;13.73;;;10.80;92.60;;;;;;6063074;23;20167;-74
2023/03/16 00:05:36;;;;;;;29.93;13.60;;;10.80;92.70;;;;;;6062758;23;20171;-73
2023/03/16 00:08:04;;;;;;;24.10;12.47;;;10.70;92.70;;;;;;6061576;23;20178;-74
2023/03/16 00:10:33;;;;;;;28.57;13.47;;;10.80;92.70;;;;;;6061994;23;20192;-74
2023/03/16 00:13:01;;;;;;;26.40;14.03;;;10.70;92.70;;;;;;6063930;23;20175;-72
2023/03/16 00:15:30;;;;;;;26.43;13.77;;;10.70;92.80;;;;;;6060930;23;20175;-74
2023/03/16 00:17:59;;;;;;;25.40;13.63;;;10.70;92.80;;;;;;6063426;23;20182;-72
2023/03/16 00:20:28;;;;;;;33.27;14.10;;;10.70;92.80;;;;;;6062028;23;20206;-75
2023/03/16 00:22:56;;;;;;;27.63;14.17;;;10.70;92.90;;;;;;6061860;23;20205;-74
2023/03/16 00:25:25;;;;;;;27.93;12.53;;;10.70;92.90;;;;;;6062409;23;20186;-74
2023/03/16 00:27:53;;;;;;;25.20;12.10;;;10.70;92.90;;;;;;6064257;23;20229;-73
2023/03/16 00:30:21;;;;;;;27.20;12.43;;;10.70;92.80;;;;;;6061615;23;20162;-73
2023/03/16 00:32:52;;;;;;;28.00;12.53;;;10.80;92.80;;;;;;6062335;23;20345;-74
2023/03/16 00:35:22;;;;;;;22.10;12.37;;;10.70;92.90;;;;;;6062763;23;20163;-74
2023/03/16 00:37:51;;;;;;;25.83;11.97;;;10.70;92.80;;;;;;6063223;23;20175;-73
2023/03/16 00:40:19;;;;;;;24.60;12.57;;;10.70;92.90;;;;;;6063294;23;20261;-73
2023/03/16 00:42:47;;;;;;;22.10;11.30;;;10.70;92.90;;;;;;6062111;23;20563;-72
2023/03/16 00:45:16;;;;;;;23.20;12.07;;;10.70;92.90;;;;;;6062520;23;20257;-74
2023/03/16 00:47:44;;;;;;;24.97;12.90;;;10.60;92.80;;;;;;6063246;23;20616;-72
2023/03/16 00:50:13;;;;;;;24.83;12.60;;;10.70;92.80;;;;;;6053974;23;20175;-73
2023/03/16 00:52:42;;;;;;;25.13;11.90;;;10.70;92.70;;;;;;6059547;23;20186;-74
2023/03/16 00:55:11;;;;;;;21.77;12.43;;;10.70;92.70;;;;;;6054660;23;20504;-74
2023/03/16 00:57:40;;;;;;;25.10;12.50;;;10.70;92.80;;;;;;6054771;23;20206;-73
2023/03/16 01:00:11;;;;;;;23.37;10.97;;;10.70;92.70;;;;;;6064572;23;20174;-74
2023/03/16 01:02:40;;;;;;;21.60;11.80;;;10.70;92.60;;;;;;6065633;23;20576;-73
2023/03/16 01:05:09;;;;;;;28.20;12.00;;;10.70;92.50;;;;;;6064361;23;20208;-73
2023/03/16 01:07:38;;;;;;;22.30;11.53;;;10.70;92.50;;;;;;6064005;23;20178;-74
2023/03/16 01:10:09;;;;;;;26.17;12.00;;;10.70;92.50;;;;;;6063298;23;20257;-73
2023/03/16 01:12:37;;;;;;;21.10;11.70;;;10.70;92.40;;;;;;6066244;23;20490;-73
2023/03/16 01:15:07;;;;;;;22.27;11.07;;;10.70;92.40;;;;;;6061100;23;20175;-73
2023/03/16 01:17:35;;;;;;;24.37;11.90;;;10.70;92.30;;;;;;6063207;23;20198;-72
2023/03/16 01:20:10;;;;;;;23.33;11.60;;;10.70;92.40;;;;;;6065209;23;20700;-74
2023/03/16 01:22:39;;;;;;;22.10;11.30;;;10.70;92.30;;;;;;6065656;23;20198;-73
2023/03/16 01:25:11;;;;;;;22.43;12.50;;;10.70;92.20;;;;;;6064549;23;20178;-73
2023/03/16 01:27:39;;;;;;;20.40;10.70;;;10.70;92.20;;;;;;6066064;23;20166;-73
2023/03/16 01:30:11;;;;;;;21.07;10.77;;;10.70;92.40;;;;;;6064135;23;20174;-74
2023/03/16 01:32:40;;;;;;;24.10;11.40;;;10.70;92.40;;;;;;6063438;23;20194;-74
2023/03/16 01:35:09;;;;;;;24.67;12.63;;;10.70;92.50;;;;;;6064037;23;20229;-73
2023/03/16 01:37:37;;;;;;;21.80;12.13;;;10.70;92.50;;;;;;6065322;23;20198;-74
2023/03/16 01:40:11;;;;;;;23.83;11.40;;;10.70;92.50;;;;;;6066100;23;20174;-73
2023/03/16 01:42:46;;;;;;;18.87;10.67;;;10.70;92.40;;;;;;6065120;23;20171;-73
2023/03/16 01:45:52;;;;;;;24.50;11.83;;;10.70;92.40;;;;;;6065365;23;20170;-75
2023/03/16 01:48:21;;;;;;;23.83;10.80;;;10.60;92.40;;;;;;6062154;23;20174;-74
2023/03/16 01:50:53;;;;;;;22.40;11.50;;;10.60;92.40;;;;;;6064567;23;20167;-73
2023/03/16 01:53:23;;;;;;;22.97;11.03;;;10.60;92.50;;;;;;6064213;23;20233;-74
2023/03/16 01:55:54;;;;;;;20.57;10.80;;;10.60;92.40;;;;;;6064199;23;20175;-74
2023/03/16 01:58:23;;;;;;;20.23;10.63;;;10.60;92.30;;;;;;6065296;23;20575;-72
2023/03/16 02:00:51;;;;;;;22.27;11.10;;;10.60;92.30;;;;;;6064302;23;20953;-74
2023/03/16 02:03:21;;;;;;;19.13;10.20;;;10.60;92.30;;;;;;6063641;23;20660;-73
2023/03/16 02:05:54;;;;;;;20.47;10.90;;;10.60;92.30;;;;;;6064570;23;20234;-72
2023/03/16 02:08:23;;;;;;;20.87;10.97;;;10.60;92.20;;;;;;6064860;23;20159;-72
2023/03/16 02:10:55;;;;;;;24.60;11.53;;;10.60;92.10;;;;;;6063593;23;20207;-73
2023/03/16 02:13:25;;;;;;;20.63;10.90;;;10.60;92.10;;;;;;6065334;23;20162;-73
2023/03/16 02:15:53;;;;;;;30.57;11.23;;;10.60;92.00;;;;;;6062581;23;20178;-73
2023/03/16 02:18:22;;;;;;;21.23;11.03;;;10.50;91.90;;;;;;6063893;23;20650;-72
2023/03/16 02:20:57;;;;;;;31.60;10.90;;;10.50;91.80;;;;;;6064738;23;20249;-73
2023/03/16 02:23:26;;;;;;;25.77;11.23;;;10.50;91.80;;;;;;6062686;23;20158;-75
2023/03/16 02:26:02;;;;;;;20.73;10.63;;;10.50;91.60;;;;;;6061621;23;20170;-73
2023/03/16 02:28:37;;;;;;;20.73;10.73;;;10.50;91.40;;;;;;6064008;23;20230;-74
2023/03/16 02:31:07;;;;;;;19.90;10.73;;;10.50;91.30;;;;;;6063805;23;20163;-73
2023/03/16 02:33:36;;;;;;;15.50;9.50;;;10.40;91.20;;;;;;6065024;23;20166;-73
2023/03/16 02:36:05;;;;;;;19.37;10.00;;;10.50;91.10;;;;;;6062889;23;20189;-73
2023/03/16 02:38:33;;;;;;;16.77;9.70;;;10.40;90.80;;;;;;6065542;23;20202;-74
2023/03/16 02:41:11;;;;;;;20.60;8.57;;;10.40;90.80;;;;;;6064381;23;20171;-72
2023/03/16 02:43:43;;;;;;;15.90;9.13;;;10.50;90.60;;;;;;6065328;23;20162;-74
2023/03/16 02:46:14;;;;;;;19.97;9.40;;;10.50;90.50;;;;;;6063171;23;20170;-74
2023/03/16 02:48:49;;;;;;;21.17;8.83;;;10.50;90.30;;;;;;6063336;23;20475;-75
2023/03/16 02:51:17;;;;;;;18.27;9.17;;;10.50;90.10;;;;;;6064687;23;20607;-73
2023/03/16 02:53:45;;;;;;;14.80;8.03;;;10.50;90.10;;;;;;6065692;23;20202;-73
2023/03/16 02:56:14;;;;;;;15.00;7.53;;;10.50;90.00;;;;;;6063033;23;20170;-74
2023/03/16 02:58:42;;;;;;;20.23;8.43;;;10.50;89.70;;;;;;6064319;23;20503;-73
2023/03/16 03:01:10;;;;;;;15.07;7.60;;;10.60;89.50;;;;;;6062607;23;20178;-74
2023/03/16 03:03:40;;;;;;;21.57;7.67;;;10.60;89.20;;;;;;6064673;23;20186;-75
2023/03/16 03:06:09;;;;;;;17.33;8.70;;;10.50;89.10;;;;;;6063535;23;20174;-74
2023/03/16 03:08:37;;;;;;;17.97;8.03;;;10.50;89.00;;;;;;6064586;23;20202;-74
2023/03/16 03:11:06;;;;;;;14.90;7.90;;;10.50;88.90;;;;;;6063916;23;20182;-73
2023/03/16 03:13:37;;;;;;;17.13;8.00;;;10.50;88.80;;;;;;6063546;23;20175;-73
2023/03/16 03:16:05;;;;;;;14.77;8.37;;;10.50;88.70;;;;;;6060867;23;20170;-72
2023/03/16 03:18:34;;;;;;;14.73;7.57;;;10.50;89.50;;;;;;6064631;23;20210;-73
2023/03/16 03:21:04;;;;;;;16.60;8.83;;;10.50;88.60;;;;;;6063062;23;20621;-72
2023/03/16 03:23:33;;;;;;;14.87;7.40;;;10.50;88.70;;;;;;6065519;23;20178;-74
2023/03/16 03:26:03;;;;;;;12.83;7.20;;;10.40;88.50;;;;;;6064991;23;20553;-74
2023/03/16 03:28:33;;;;;;;16.03;7.40;;;10.40;88.60;;;;;;6066651;23;20174;-73
2023/03/16 03:31:01;;;;;;;14.30;7.37;;;10.40;88.60;;;;;;6064213;23;20210;-73
2023/03/16 03:33:32;;;;;;;15.43;6.60;;;10.40;88.60;;;;;;6065583;23;20175;-73
2023/03/16 03:36:00;;;;;;;11.80;6.50;;;10.30;88.50;;;;;;6063891;23;20167;-73
2023/03/16 03:38:30;;;;;;;12.23;6.57;;;10.40;88.60;;;;;;6065047;23;20202;-72
2023/03/16 03:40:59;;;;;;;12.67;6.63;;;10.40;88.50;;;;;;6064195;23;20263;-73
2023/03/16 03:43:27;;;;;;;10.83;6.03;;;10.30;88.50;;;;;;6063920;23;20174;-74
2023/03/16 03:45:57;;;;;;;12.80;6.20;;;10.30;88.40;;;;;;6063917;23;20230;-73
2023/03/16 03:48:26;;;;;;;9.93;6.17;;;10.30;88.40;;;;;;6063478;23;20190;-73
2023/03/16 03:50:55;;;;;;;9.37;5.43;;;10.20;88.50;;;;;;6060054;23;20230;-73
2023/03/16 03:53:23;;;;;;;13.50;6.50;;;10.30;88.60;;;;;;6060858;23;20227;-74
2023/03/16 03:55:53;;;;;;;12.20;6.37;;;10.20;88.70;;;;;;6062340;23;20644;-73
2023/03/16 03:58:22;;;;;;;9.33;5.70;;;10.20;88.70;;;;;;6061207;23;20270;-73
2023/03/16 04:00:51;;;;;;;8.87;4.90;;;10.20;88.50;;;;;;6063689;23;20715;-73
2023/03/16 04:03:20;;;;;;;8.93;4.77;;;10.30;88.50;;;;;;6063693;23;20632;-73
2023/03/16 04:05:49;;;;;;;8.30;4.13;;;10.30;88.60;;;;;;6063432;23;20170;-73
2023/03/16 04:08:17;;;;;;;10.20;5.30;;;10.30;88.30;;;;;;6061874;23;20586;-74
2023/03/16 04:10:47;;;;;;;9.87;4.67;;;10.20;87.90;;;;;;6064953;23;20226;-73
2023/03/16 04:13:16;;;;;;;8.93;4.90;;;10.20;88.00;;;;;;6063905;23;20703;-74
2023/03/16 04:15:45;;;;;;;13.60;5.10;;;10.20;88.10;;;;;;6063075;23;20174;-72
2023/03/16 04:18:14;;;;;;;8.43;4.33;;;10.20;88.20;;;;;;6062380;23;20198;-73
2023/03/16 04:20:42;;;;;;;7.97;4.57;;;10.20;87.90;;;;;;6063462;23;20179;-73
2023/03/16 04:23:10;;;;;;;8.33;4.73;;;10.30;87.70;;;;;;6063575;23;20178;-73
2023/03/16 04:25:39;;;;;;;8.67;5.07;;;10.30;87.50;;;;;;6065068;23;20241;-74
2023/03/16 04:28:07;;;;;;;7.03;3.93;;;10.30;87.50;;;;;;6064504;23;20388;-72
2023/03/16 04:30:37;;;;;;;11.27;3.97;;;10.30;87.20;;;;;;6065081;23;20230;-73
2023/03/16 04:33:05;;;;;;;6.67;3.97;;;10.30;86.90;;;;;;6066335;23;20222;-74
2023/03/16 04:35:33;;;;;;;6.53;4.13;;;10.30;86.60;;;;;;6065670;23;20624;-73
2023/03/16 04:38:02;;;;;;;6.10;3.43;;;10.20;85.80;;;;;;6064771;23;20202;-73
2023/03/16 04:40:30;;;;;;;8.57;3.67;;;10.30;85.70;;;;;;6063639;23;20222;-73
2023/03/16 04:42:59;;;;;;;6.60;3.37;;;10.20;85.50;;;;;;6064164;23;20225;-73
2023/03/16 04:45:27;;;;;;;6.83;3.33;;;10.20;85.50;;;;;;6063378;23;20226;-74
2023/03/16 04:47:57;;;;;;;8.30;3.67;;;10.20;85.80;;;;;;6059767;23;20178;-73
2023/03/16 04:50:25;;;;;;;8.93;3.57;;;10.20;84.80;;;;;;6058112;23;20502;-74
2023/03/16 04:52:54;;;;;;;5.97;3.10;;;10.30;85.70;;;;;;6059764;23;20498;-73
2023/03/16 04:55:22;;;;;;;7.37;3.10;;;10.20;85.00;;;;;;6067072;23;20201;-73
2023/03/16 04:57:51;;;;;;;6.43;3.00;;;10.20;84.60;;;;;;6054954;23;20261;-74
2023/03/16 05:00:22;;;;;;;5.77;3.30;;;10.20;83.90;;;;;;6061700;23;20633;-72
2023/03/16 05:02:51;;;;;;;6.03;2.57;;;10.20;83.70;;;;;;6065020;23;20163;-74
2023/03/16 05:05:21;;;;;;;5.73;3.37;;;10.20;83.60;;;;;;6065232;23;20222;-73
2023/03/16 05:07:50;;;;;;;7.67;3.33;;;10.20;83.00;;;;;;6063074;23;20174;-74
2023/03/16 05:10:19;;;;;;;5.80;2.80;;;10.20;83.00;;;;;;6064729;23;20174;-73
2023/03/16 05:12:47;;;;;;;5.67;2.87;;;10.20;83.00;;;;;;6065129;23;20277;-74
2023/03/16 05:15:15;;;;;;;5.53;2.73;;;10.20;82.30;;;;;;6064016;23;20178;-74
2023/03/16 05:17:45;;;;;;;4.93;2.60;;;10.20;81.70;;;;;;6063273;23;20174;-73
2023/03/16 05:20:14;;;;;;;4.33;2.03;;;10.20;82.00;;;;;;6064008;23;20544;-73
2023/03/16 05:22:47;;;;;;;4.77;2.97;;;10.10;81.70;;;;;;6063413;23;20181;-73
2023/03/16 05:25:16;;;;;;;5.77;2.57;;;10.10;81.60;;;;;;6064271;23;20175;-73
2023/03/16 05:27:46;;;;;;;4.73;2.80;;;10.10;81.50;;;;;;6063855;23;20174;-73
2023/03/16 05:30:16;;;;;;;9.23;2.87;;;10.10;81.50;;;;;;6063079;23;20174;-74
2023/03/16 05:32:45;;;;;;;5.17;2.50;;;10.10;81.40;;;;;;6066063;23;20627;-73
2023/03/16 05:35:14;;;;;;;6.07;2.60;;;10.10;81.50;;;;;;6065900;23;20175;-73
2023/03/16 05:37:44;;;;;;;6.17;2.30;;;10.10;81.40;;;;;;6066149;23;20230;-74
2023/03/16 05:40:16;;;;;;;5.00;2.37;;;10.00;81.10;;;;;;6064711;23;20254;-73
2023/03/16 05:42:46;;;;;;;3.53;2.20;;;10.10;81.10;;;;;;6066162;23;20174;-73
2023/03/16 05:45:18;;;;;;;4.27;2.20;;;10.10;80.70;;;;;;6064552;23;20175;-73
2023/03/16 05:47:46;;;;;;;9.23;2.30;;;10.10;80.60;;;;;;6064564;23;20181;-75
2023/03/16 05:50:16;;;;;;;3.53;2.00;;;10.10;80.10;;;;;;6063313;23;20175;-74
2023/03/16 05:52:47;;;;;;;3.53;2.30;;;10.10;80.10;;;;;;6065944;23;20174;-73
2023/03/16 05:55:17;;;;;;;4.67;2.20;;;10.10;80.00;;;;;;6065738;23;20162;-74
2023/03/16 05:57:45;;;;;;;11.80;2.10;;;10.10;79.60;;;;;;6058494;23;20198;-73
2023/03/16 06:00:17;;;;;;;4.70;2.27;;;10.20;79.20;;;;;;6064157;23;20517;-73
2023/03/16 06:02:47;;;;;;;4.83;3.30;;;10.10;79.00;;;;;;6064204;23;20162;-72
2023/03/16 06:05:16;;;;;;;4.17;2.00;;;10.10;79.00;;;;;;6065687;23;20245;-73
2023/03/16 06:07:45;;;;;;;3.33;1.70;;;10.10;79.20;;;;;;6065412;23;20171;-72
2023/03/16 06:10:14;;;;;;;3.03;1.87;;;10.10;79.50;;;;;;6065221;23;20560;-72
2023/03/16 06:12:42;;;;;;;4.37;2.07;;;10.10;79.80;;;;;;6064838;23;20178;-72
2023/03/16 06:15:12;;;;;;;2.73;1.70;;;10.10;79.80;;;;;;6067620;23;20481;-72
2023/03/16 06:17:40;;;;;;;5.20;1.80;;;10.10;79.50;;;;;;6066974;23;20175;-73
2023/03/16 06:20:11;;;;;;;5.23;2.10;;;10.10;79.90;;;;;;6063717;23;20194;-74
2023/03/16 06:22:41;;;;;;;4.20;1.83;;;10.10;79.90;;;;;;6064217;23;20158;-74
2023/03/16 06:25:13;;;;;;;8.73;1.63;;;10.10;79.90;;;;;;6065619;23;20174;-73
2023/03/16 06:27:42;;;;;;;3.93;1.73;;;10.00;79.50;;;;;;6066151;23;20167;-72
2023/03/16 06:30:13;;;;;;;2.90;1.53;;;10.10;79.50;;;;;;6067250;23;20683;-73
2023/03/16 06:32:42;;;;;;;3.27;1.87;;;10.00;79.20;;;;;;6065696;23;20171;-74
2023/03/16 06:35:10;;;;;;;2.57;1.63;;;10.00;79.40;;;;;;6066218;23;20222;-72
2023/03/16 06:37:39;;;;;;;3.90;2.00;;;10.10;79.50;;;;;;6064978;23;20175;-73
2023/03/16 06:40:09;;;;;;;3.20;1.63;;;10.10;79.60;;;;;;6065492;23;20556;-72
2023/03/16 06:42:39;;;;;;;3.37;1.77;;;10.00;78.90;;;;;;6065395;23;20169;-72
2023/03/16 06:45:09;;;;;;;3.90;1.80;;;10.00;79.10;;;;;;6067408;23;20198;-73
2023/03/16 06:47:37;;;;;;;3.33;1.80;;;10.00;79.10;;;;;;6065135;23;20608;-72
2023/03/16 06:50:07;;;;;;;4.03;2.10;;;10.00;79.30;;;;;;6066240;23;20171;-72
2023/03/16 06:52:36;;;;;;;3.37;1.97;;;10.00;79.20;;;;;;6062568;23;20802;-74
2023/03/16 06:55:05;;;;;;;4.00;1.80;;;10.00;79.10;;;;;;6065518;23;20281;-72
2023/03/16 06:57:33;;;;;;;4.80;1.43;;;10.00;79.30;;;;;;6059236;23;21033;-74
2023/03/16 07:00:04;;;;;;;2.90;1.53;;;10.10;79.40;;;;;;6065808;23;20202;-72
2023/03/16 07:02:34;;;;;;;3.13;1.70;;;10.00;79.20;;;;;;6063606;23;20178;-73
2023/03/16 07:05:02;;;;;;;4.07;1.60;;;10.00;78.90;;;;;;6067106;23;20173;-72
2023/03/16 07:07:31;;;;;;;3.37;1.83;;;10.00;78.90;;;;;;6065188;23;20202;-73
2023/03/16 07:10:00;;;;;;;3.93;1.77;;;10.00;79.10;;;;;;6067001;23;20500;-73
2023/03/16 07:12:28;;;;;;;4.67;1.83;;;10.00;78.50;;;;;;6065223;23;20170;-72
2023/03/16 07:14:57;;;;;;;3.87;2.00;;;10.00;79.20;;;;;;6067300;23;20221;-72
2023/03/16 07:17:27;;;;;;;2.77;1.43;;;10.00;78.70;;;;;;6065176;23;20181;-72
2023/03/16 07:19:55;;;;;;;3.30;1.83;;;10.00;78.80;;;;;;6066023;23;20668;-73
2023/03/16 07:22:23;;;;;;;2.70;1.70;;;10.00;78.90;;;;;;6060378;23;20545;-77
2023/03/16 07:24:56;;;;;;;7.17;2.30;;;10.00;79.10;;;;;;6058857;23;20199;-73
2023/03/16 07:27:24;;;;;;;4.03;2.30;;;10.00;79.10;;;;;;6064256;23;20395;-72
2023/03/16 07:29:53;;;;;;;3.10;1.63;;;10.00;79.20;;;;;;6063895;23;20182;-73
2023/03/16 07:32:22;;;;;;;3.20;1.60;;;10.00;79.30;;;;;;6060886;23;20175;-73
2023/03/16 07:34:52;;;;;;;5.47;1.80;;;10.00;79.10;;;;;;6065092;23;20232;-71
2023/03/16 07:37:20;;;;;;;3.07;1.70;;;10.00;78.90;;;;;;6064981;23;20159;-73
2023/03/16 07:39:52;;;;;;;2.63;1.70;;;9.90;78.90;;;;;;6063428;23;20660;-73
2023/03/16 07:42:21;;;;;;;5.10;2.67;;;10.00;78.80;;;;;;6063139;23;20545;-73
2023/03/16 07:44:50;;;;;;;3.87;2.30;;;10.00;78.90;;;;;;6061241;23;20634;-72
2023/03/16 07:47:19;;;;;;;3.03;1.77;;;10.00;79.10;;;;;;6064443;23;20171;-73
2023/03/16 07:49:48;;;;;;;4.03;1.90;;;10.00;79.30;;;;;;6064672;23;20575;-73
2023/03/16 07:52:18;;;;;;;9.10;2.23;;;10.00;79.40;;;;;;6064140;23;20229;-74
2023/03/16 07:54:47;;;;;;;5.17;2.47;;;10.00;79.10;;;;;;6063292;23;20182;-72
2023/03/16 07:57:22;;;;;;;4.70;2.40;;;10.00;79.20;;;;;;6060599;23;20656;-76
2023/03/16 07:59:59;;;;;;;9.80;2.00;;;10.10;79.40;;;;;;6059469;23;20501;-77
2023/03/16 08:02:28;;;;;;;3.77;1.93;;;10.10;79.30;;;;;;6057012;23;20221;-75
2023/03/16 08:04:56;;;;;;;3.93;1.83;;;10.00;79.10;;;;;;6064044;23;20628;-71
2023/03/16 08:07:26;;;;;;;3.07;1.47;;;10.10;79.00;;;;;;6066333;23;20687;-73
2023/03/16 08:09:54;;;;;;;3.50;2.20;;;10.10;78.70;;;;;;6064478;23;20178;-72
2023/03/16 08:12:22;;;;;;;2.10;1.47;;;10.10;78.80;;;;;;6064459;23;20175;-72
2023/03/16 08:14:51;;;;;;;3.80;1.70;;;10.10;78.90;;;;;;6062132;23;20234;-72
2023/03/16 08:17:20;;;;;;;2.87;1.60;;;10.10;78.60;;;;;;6066482;23;20174;-73
2023/03/16 08:19:48;;;;;;;3.40;1.70;;;10.10;78.20;;;;;;6065857;23;20222;-72
2023/03/16 08:22:17;;;;;;;4.53;2.50;;;10.10;78.40;;;;;;6065433;23;20249;-72
2023/03/16 08:24:47;;;;;;;4.33;2.10;;;10.00;78.90;;;;;;6064065;23;20178;-73
2023/03/16 08:27:18;;;;;;;3.23;1.80;;;10.00;79.40;;;;;;6066450;23;20209;-72
2023/03/16 08:29:46;;;;;;;3.37;1.87;;;10.10;79.20;;;;;;6065367;23;20162;-73
2023/03/16 08:32:15;;;;;;;2.37;1.40;;;10.10;79.20;;;;;;6064949;23;20175;-73
2023/03/16 08:34:44;;;;;;;3.38;2.13;;;10.10;78.80;;;;;;6063089;23;20391;-74
2023/03/16 08:37:13;;;;;;;5.60;2.10;;;10.20;78.80;;;;;;6066101;23;20177;-72
2023/03/16 08:39:42;;;;;;;4.77;2.53;;;10.20;79.10;;;;;;6064133;23;20546;-72
2023/03/16 08:42:14;;;;;;;8.73;2.50;;;10.20;79.30;;;;;;6066546;23;20739;-72
2023/03/16 08:44:42;;;;;;;3.97;1.67;;;10.20;79.40;;;;;;6064091;23;20605;-72
2023/03/16 08:47:13;;;;;;;5.40;1.93;;;10.20;79.10;;;;;;6065333;23;20209;-72
2023/03/16 08:49:41;;;;;;;3.57;1.90;;;10.20;79.20;;;;;;6064356;23;20167;-74
2023/03/16 08:52:11;;;;;;;4.30;1.80;;;10.20;79.10;;;;;;6066814;23;20182;-72
2023/03/16 08:54:40;;;;;;;4.53;2.20;;;10.20;79.20;;;;;;6063112;23;20214;-72
2023/03/16 08:57:21;;;;;;;3.93;2.23;;;10.30;79.30;;;;;;6064766;23;20261;-72
2023/03/16 08:59:58;;;;;;;3.43;1.90;;;10.30;79.60;;;;;;6062254;23;20233;-73
2023/03/16 09:02:27;;;;;;;5.37;2.70;;;10.30;80.10;;;;;;6066878;23;20171;-73
2023/03/16 09:04:55;;;;;;;7.57;2.33;;;10.40;80.10;;;;;;6060978;23;20190;-73
2023/03/16 09:07:24;;;;;;;3.83;2.20;;;10.40;80.20;;;;;;6063881;23;20175;-73
2023/03/16 09:09:53;;;;;;;6.70;1.80;;;10.40;80.20;;;;;;6061960;23;20234;-73
2023/03/16 09:12:23;;;;;;;2.67;1.70;;;10.40;80.00;;;;;;6063832;23;20754;-72
2023/03/16 09:14:53;;;;;;;4.93;2.07;;;10.40;80.30;;;;;;6063100;23;20191;-72
2023/03/16 09:17:21;;;;;;;4.47;2.13;;;10.40;80.20;;;;;;6064605;23;20638;-73
2023/03/16 09:19:49;;;;;;;5.77;2.37;;;10.40;80.60;;;;;;6062907;23;20751;-73
2023/03/16 09:22:21;;;;;;;3.67;2.20;;;10.50;81.40;;;;;;6064549;23;20187;-73
2023/03/16 09:24:50;;;;;;;4.77;2.60;;;10.50;81.40;;;;;;6062439;23;20683;-72
2023/03/16 09:27:19;;;;;;;6.00;2.90;;;10.50;81.30;;;;;;6061469;23;20174;-75
2023/03/16 09:29:51;;;;;;;5.43;2.80;;;10.60;81.50;;;;;;6062857;23;20197;-73
2023/03/16 09:32:20;;;;;;;2.93;1.90;;;10.70;81.70;;;;;;6064332;23;20163;-73
2023/03/16 09:34:49;;;;;;;4.73;2.40;;;10.70;81.70;;;;;;6059531;23;20743;-73
2023/03/16 09:37:17;;;;;;;4.67;2.40;;;10.70;82.40;;;;;;6061831;23;20230;-72
2023/03/16 09:39:46;;;;;;;4.27;2.30;;;10.70;81.90;;;;;;6062881;23;20342;-73
2023/03/16 09:42:19;;;;;;;5.10;2.60;;;10.70;81.70;;;;;;6062285;23;20254;-72
2023/03/16 09:44:59;;;;;;;4.63;2.70;;;10.80;81.90;;;;;;6061870;23;20162;-73
2023/03/16 09:47:30;;;;;;;4.63;2.30;;;10.70;81.90;;;;;;6065801;23;20166;-72
2023/03/16 09:50:02;;;;;;;4.97;2.50;;;10.70;81.50;;;;;;6063965;23;20603;-72
2023/03/16 09:52:40;;;;;;;4.23;2.33;;;10.70;81.60;;;;;;6066129;23;20163;-72
2023/03/16 09:55:19;;;;;;;4.80;2.47;;;10.70;81.90;;;;;;6061727;23;20174;-72
2023/03/16 09:57:51;;;;;;;5.27;2.27;;;10.70;81.60;;;;;;6064063;23;20198;-72
2023/03/16 10:00:24;;;;;;;5.13;3.07;;;10.70;81.90;;;;;;6065795;23;20167;-72
2023/03/16 10:03:11;;;;;;;4.63;2.73;;;10.60;82.60;;;;;;6063100;23;20191;-72
2023/03/16 10:05:47;;;;;;;5.83;3.27;;;10.70;82.40;;;;;;6064808;23;20166;-73
2023/03/16 10:08:21;;;;;;;6.43;3.07;;;10.70;82.30;;;;;;6063741;23;20173;-72
2023/03/16 10:11:05;;;;;;;7.33;3.73;;;10.70;82.90;;;;;;6064700;23;20675;-72
2023/03/16 10:13:41;;;;;;;9.07;3.57;;;10.70;83.20;;;;;;6065152;23;20617;-72
2023/03/16 10:16:16;;;;;;;8.07;3.30;;;10.70;83.00;;;;;;6063009;23;20687;-73
2023/03/16 10:18:46;;;;;;;5.27;2.53;;;10.80;83.00;;;;;;6063314;23;20703;-73
2023/03/16 10:21:17;;;;;;;4.63;2.70;;;10.70;83.10;;;;;;6065111;23;20190;-72
2023/03/16 10:23:47;;;;;;;6.03;3.00;;;10.70;83.20;;;;;;6063633;23;20543;-73
2023/03/16 10:26:21;;;;;;;4.23;2.57;;;10.80;83.20;;;;;;6060550;23;20190;-73
2023/03/16 10:28:51;;;;;;;5.93;2.80;;;10.80;83.20;;;;;;6061875;23;20229;-72
2023/03/16 10:31:23;;;;;;;4.90;2.97;;;10.80;83.60;;;;;;6062419;23;20245;-73
2023/03/16 10:33:57;;;;;;;5.40;3.03;;;10.80;84.10;;;;;;6059655;23;20197;-74
2023/03/16 10:36:32;;;;;;;4.37;2.60;;;10.70;84.20;;;;;;6064012;23;20596;-73
2023/03/16 10:39:03;;;;;;;5.70;3.10;;;10.70;84.80;;;;;;6061384;23;20630;-73
2023/03/16 10:41:35;;;;;;;5.93;3.37;;;10.80;84.60;;;;;;6064988;23;20194;-72
2023/03/16 10:44:10;;;;;;;6.07;3.17;;;10.80;84.80;;;;;;6063516;23;20600;-73
2023/03/16 10:46:44;;;;;;;5.80;3.17;;;10.90;84.90;;;;;;6064178;23;20158;-73
2023/03/16 10:49:24;;;;;;;5.00;3.30;;;10.90;85.40;;;;;;6064511;23;20493;-73
2023/03/16 10:51:54;;;;;;;5.40;2.53;;;10.90;85.80;;;;;;6063363;23;20165;-73
2023/03/16 10:54:29;;;;;;;11.33;3.77;;;10.90;85.90;;;;;;6063642;23;20233;-74
2023/03/16 10:56:57;;;;;;;7.73;3.50;;;10.90;85.70;;;;;;6064227;23;20204;-73
2023/03/16 10:59:30;;;;;;;5.63;3.40;;;11.00;85.60;;;;;;6062820;23;20202;-74
2023/03/16 11:02:02;;;;;;;7.07;3.40;;;11.00;85.60;;;;;;6063133;23;20195;-72
2023/03/16 11:04:33;;;;;;;6.47;3.47;;;11.00;85.80;;;;;;6064012;23;20163;-73
2023/03/16 11:07:02;;;;;;;6.83;4.20;;;11.00;86.30;;;;;;6064978;23;20245;-73
2023/03/16 11:09:33;;;;;;;7.57;4.00;;;11.00;86.10;;;;;;6062949;23;20178;-73
2023/03/16 11:12:14;;;;;;;9.03;4.00;;;11.00;86.50;;;;;;6064970;23;20174;-73
2023/03/16 11:14:45;;;;;;;7.47;3.93;;;11.00;86.10;;;;;;6066444;23;20163;-74
2023/03/16 11:17:19;;;;;;;5.20;2.77;;;11.10;86.20;;;;;;6064174;23;20181;-74
2023/03/16 11:19:53;;;;;;;7.27;3.70;;;11.10;86.40;;;;;;6066835;23;20171;-72
2023/03/16 11:22:25;;;;;;;6.43;3.58;;;11.10;86.80;;;;;;6062450;23;20411;-74
2023/03/16 11:25:12;;;;;;;8.67;4.30;;;11.00;86.90;;;;;;6062583;23;20238;-76
2023/03/16 11:27:46;;;;;;;7.20;3.83;;;11.00;86.60;;;;;;6059969;23;20229;-73
2023/03/16 11:30:23;;;;;;;5.33;2.90;;;11.00;86.80;;;;;;6063453;23;20163;-73
2023/03/16 11:32:53;;;;;;;6.33;3.50;;;11.10;86.70;;;;;;6063509;23;20167;-73
2023/03/16 11:35:29;;;;;;;8.87;4.13;;;11.00;86.50;;;;;;6064641;23;20170;-73
2023/03/16 11:38:10;;;;;;;9.67;3.63;;;11.10;86.50;;;;;;6064430;23;20222;-73
2023/03/16 11:40:48;;;;;;;7.63;3.53;;;11.10;86.30;;;;;;6064236;23;20166;-74
2023/03/16 11:43:58;;;;;;;9.50;4.37;;;11.10;86.60;;;;;;6063367;23;20246;-73
2023/03/16 11:46:31;;;;;;;7.33;3.50;;;11.20;87.10;;;;;;6050954;23;20178;-74
2023/03/16 11:49:14;;;;;;;7.53;4.10;;;11.20;87.20;;;;;;6064579;23;20169;-73
2023/03/16 11:51:48;;;;;;;6.20;3.63;;;11.20;87.10;;;;;;6063585;23;20234;-73
2023/03/16 11:54:44;;;;;;;6.83;3.80;;;11.20;87.10;;;;;;6064456;23;20170;-73
2023/03/16 11:57:31;;;;;;;7.97;3.60;;;11.20;86.80;;;;;;6064282;23;20194;-74
2023/03/16 12:00:15;;;;;;;6.50;3.70;;;11.20;86.60;;;;;;6064549;23;20165;-74
2023/03/16 12:03:02;;;;;;;7.60;3.70;;;11.30;86.40;;;;;;6064343;23;20186;-73
2023/03/16 12:05:48;;;;;;;10.83;3.80;;;11.30;86.30;;;;;;6063603;23;20190;-74
2023/03/16 12:08:41;;;;;;;6.43;3.50;;;11.30;86.20;;;;;;6065126;23;20167;-73
2023/03/16 12:11:13;;;;;;;7.13;3.97;;;11.40;86.10;;;;;;6064032;23;20179;-73
2023/03/16 12:13:59;;;;;;;6.17;3.50;;;11.40;86.80;;;;;;6064485;23;20190;-73
2023/03/16 12:16:33;;;;;;;6.30;3.80;;;11.40;86.80;;;;;;6064041;23;20174;-74
2023/03/16 12:19:23;;;;;;;5.33;3.07;;;11.40;86.50;;;;;;6065046;23;20246;-73
2023/03/16 12:22:03;;;;;;;6.90;3.97;;;11.40;86.60;;;;;;6064188;23;20684;-73
2023/03/16 12:24:41;;;;;;;7.77;3.03;;;11.50;86.60;;;;;;6063355;23;20242;-73
2023/03/16 12:27:16;;;;;;;6.00;3.50;;;11.50;86.50;;;;;;6064765;23;20193;-73
2023/03/16 12:29:58;;;;;;;6.43;3.53;;;11.50;86.70;;;;;;6064516;23;20293;-73
2023/03/16 12:32:37;;;;;;;5.90;3.50;;;11.50;86.60;;;;;;6064999;23;20163;-73
2023/03/16 12:35:22;;;;;;;7.03;3.43;;;11.50;86.40;;;;;;6063208;23;20528;-73
2023/03/16 12:38:07;;;;;;;9.30;3.50;;;11.60;86.20;;;;;;6064405;23;20163;-74
2023/03/16 12:40:46;;;;;;;7.57;3.70;;;11.60;86.00;;;;;;6064161;23;20166;-73
2023/03/16 12:43:35;;;;;;;4.70;2.80;;;11.60;85.90;;;;;;6062506;23;20186;-73
2023/03/16 12:46:08;;;;;;;6.27;3.20;;;11.60;85.80;;;;;;6063923;23;20166;-73
2023/03/16 12:48:41;;;;;;;8.53;3.87;;;11.70;85.70;;;;;;6063309;23;20192;-73
2023/03/16 12:51:09;;;;;;;6.07;3.23;;;11.70;85.80;;;;;;6064813;23;20668;-74
2023/03/16 12:53:45;;;;;;;6.93;3.63;;;11.70;85.70;;;;;;6066304;23;20496;-73
2023/03/16 12:56:16;;;;;;;4.47;3.03;;;11.80;85.70;;;;;;6066140;23;20483;-73
2023/03/16 12:58:47;;;;;;;6.87;3.37;;;11.80;85.50;;;;;;6063697;23;20198;-74
2023/03/16 13:01:18;;;;;;;5.80;3.17;;;11.80;85.50;;;;;;6064613;23;20182;-73